Peary, Virginia
Current Conditions -  °F | °C
As of 9:35 AM on Friday 31 Oct 2014 (Local Time) from KW75 Reporting Station
Clear Clear  
Wind Chill: 53°   Ceiling: Unl
Heat Index: 53°   Visibility: 10mi
Dew Point: 44°   Wind: 6mph
Humidity: 72%   Direction: 40°NE
Pressure: 29.95"   Gusts: NA
Location:  37.3757°N, 76.2979°W
Report Text: KW75 311335Z AUTO 04005KT 10SM CLR 11/07 A2995 RMK AO1 T01140065
Loading
Personal Weather Stations






























Interactive Weather Map
Tropical Storm Tracking
New forecast layout! Learn more

10-Day Weather Forecast

Advertisements
Track Severe Weather on mobile